createdAt,value
2023-04-26T00:02:25.261Z,11.56
2023-04-26T00:05:14.437Z,11.36
2023-04-26T00:07:42.622Z,11.30
2023-04-26T00:10:11.339Z,11.31
2023-04-26T00:12:38.988Z,11.43
2023-04-26T00:15:09.613Z,11.57
2023-04-26T00:17:37.555Z,11.59
2023-04-26T00:20:09.514Z,11.52
2023-04-26T00:22:37.149Z,11.36
2023-04-26T00:25:05.997Z,11.19
2023-04-26T00:27:33.565Z,11.12
2023-04-26T00:30:03.892Z,11.09
2023-04-26T00:32:32.131Z,11.05
2023-04-26T00:35:00.037Z,11.07
2023-04-26T00:37:27.904Z,11.11
2023-04-26T00:39:57.360Z,11.09
2023-04-26T00:42:25.344Z,11.12
2023-04-26T00:44:55.600Z,11.18
2023-04-26T00:47:23.543Z,11.19
2023-04-26T00:49:50.558Z,11.17
2023-04-26T00:52:18.161Z,11.13
2023-04-26T00:54:46.166Z,11.15
2023-04-26T00:57:13.583Z,11.12
2023-04-26T00:59:41.555Z,11.12
2023-04-26T01:02:10.571Z,11.08
2023-04-26T01:04:40.184Z,11.13
2023-04-26T01:07:07.350Z,11.13
2023-04-26T01:09:34.892Z,11.13
2023-04-26T01:12:02.843Z,11.06
2023-04-26T01:14:30.360Z,10.97
2023-04-26T01:16:58.865Z,10.90
2023-04-26T01:19:26.394Z,10.91
2023-04-26T01:21:54.201Z,10.86
2023-04-26T01:24:21.786Z,10.80
2023-04-26T01:26:48.888Z,10.76
2023-04-26T01:29:42.433Z,10.68
2023-04-26T01:32:10.477Z,10.64
2023-04-26T01:34:38.783Z,10.58
2023-04-26T01:37:07.843Z,10.49
2023-04-26T01:39:36.635Z,10.40
2023-04-26T01:42:04.870Z,10.47
2023-04-26T01:44:32.433Z,10.39
2023-04-26T01:46:59.869Z,10.28
2023-04-26T01:49:27.378Z,10.24
2023-04-26T01:51:55.810Z,10.14
2023-04-26T01:54:23.810Z,9.96
2023-04-26T01:56:51.996Z,9.85
2023-04-26T01:59:20.242Z,9.83
2023-04-26T02:01:47.832Z,9.85
2023-04-26T02:04:15.836Z,9.95
2023-04-26T02:06:43.358Z,9.99
2023-04-26T02:09:11.443Z,9.97
2023-04-26T02:11:39.353Z,9.97
2023-04-26T02:14:06.826Z,9.94
2023-04-26T02:16:34.376Z,9.77
2023-04-26T02:19:02.657Z,9.95
2023-04-26T02:21:30.687Z,9.93
2023-04-26T02:23:58.722Z,9.99
2023-04-26T02:26:27.068Z,9.99
2023-04-26T02:28:55.274Z,9.96
2023-04-26T02:31:23.323Z,9.97
2023-04-26T02:33:51.003Z,9.99
2023-04-26T02:36:18.462Z,10.01
2023-04-26T02:38:46.616Z,10.00
2023-04-26T02:41:14.553Z,9.99
2023-04-26T02:43:42.381Z,9.96
2023-04-26T02:46:10.201Z,9.97
2023-04-26T02:48:37.782Z,9.98
2023-04-26T02:51:06.698Z,9.91
2023-04-26T02:53:34.211Z,9.82
2023-04-26T02:56:01.948Z,9.78
2023-04-26T02:58:29.953Z,9.76
2023-04-26T03:01:01.449Z,9.66
2023-04-26T03:03:29.786Z,9.65
2023-04-26T03:05:58.182Z,9.58
2023-04-26T03:08:25.762Z,9.52
2023-04-26T03:10:53.836Z,9.55
2023-04-26T03:13:25.470Z,9.51
2023-04-26T03:15:53.646Z,9.46
2023-04-26T03:18:21.464Z,9.35
2023-04-26T03:20:49.044Z,9.36
2023-04-26T03:23:16.597Z,9.43
2023-04-26T03:25:44.051Z,9.44
2023-04-26T03:28:12.207Z,9.18
2023-04-26T03:30:40.086Z,9.08
2023-04-26T03:33:08.021Z,9.11
2023-04-26T03:35:35.904Z,9.06
2023-04-26T03:38:03.457Z,9.02
2023-04-26T03:40:31.335Z,8.90
2023-04-26T03:42:58.850Z,8.90
2023-04-26T03:45:26.998Z,8.90
2023-04-26T03:47:55.075Z,8.86
2023-04-26T03:50:23.163Z,8.76
2023-04-26T03:52:50.963Z,8.70
2023-04-26T03:55:18.462Z,8.71
2023-04-26T03:57:46.494Z,8.72
2023-04-26T04:00:16.300Z,8.65
2023-04-26T04:02:44.101Z,8.58
2023-04-26T04:05:12.041Z,8.59
2023-04-26T04:07:40.110Z,8.58
2023-04-26T04:10:10.741Z,8.67
2023-04-26T04:12:38.495Z,8.70
2023-04-26T04:15:08.389Z,8.79
2023-04-26T04:17:38.239Z,8.75
2023-04-26T04:20:08.726Z,8.74
2023-04-26T04:22:36.429Z,8.78
2023-04-26T04:25:06.147Z,8.73
2023-04-26T04:27:34.179Z,8.79
2023-04-26T04:30:03.703Z,8.75
2023-04-26T04:32:32.952Z,8.80
2023-04-26T04:35:01.053Z,8.76
2023-04-26T04:37:28.876Z,8.79
2023-04-26T04:39:56.549Z,8.84
2023-04-26T04:42:24.446Z,8.91
2023-04-26T04:44:52.418Z,8.96
2023-04-26T04:47:20.850Z,8.97
2023-04-26T04:49:48.740Z,8.99
2023-04-26T04:52:18.708Z,9.12
2023-04-26T04:54:46.736Z,9.35
2023-04-26T04:57:14.056Z,9.45
2023-04-26T04:59:42.003Z,9.52
2023-04-26T05:02:09.962Z,9.63
2023-04-26T05:04:38.270Z,9.79
2023-04-26T05:07:06.761Z,9.95
2023-04-26T05:09:34.765Z,10.08
2023-04-26T05:12:03.388Z,10.19
2023-04-26T05:14:31.411Z,10.28
2023-04-26T05:16:59.362Z,10.24
2023-04-26T05:19:27.338Z,10.28
2023-04-26T05:21:54.896Z,10.31
2023-04-26T05:24:22.769Z,10.38
2023-04-26T05:26:50.338Z,10.49
2023-04-26T05:29:18.090Z,10.59
2023-04-26T05:31:45.650Z,10.74
2023-04-26T05:34:13.667Z,10.92
2023-04-26T05:36:41.855Z,10.99
2023-04-26T05:39:09.771Z,11.12
2023-04-26T05:41:37.831Z,11.29
2023-04-26T05:44:05.422Z,11.43
2023-04-26T05:46:33.392Z,11.56
2023-04-26T05:49:01.306Z,11.65
2023-04-26T05:51:29.242Z,11.68
2023-04-26T05:53:57.394Z,11.72
2023-04-26T05:56:25.930Z,11.84
2023-04-26T05:58:53.693Z,11.94
2023-04-26T06:01:21.277Z,12.10
2023-04-26T06:03:49.530Z,12.20
2023-04-26T06:06:18.566Z,12.29
2023-04-26T06:08:46.013Z,12.37
2023-04-26T06:11:13.930Z,12.45
2023-04-26T06:13:41.844Z,12.60
2023-04-26T06:16:09.672Z,12.69
2023-04-26T06:18:37.297Z,12.77
2023-04-26T06:21:05.481Z,12.78
2023-04-26T06:23:33.244Z,12.86
2023-04-26T06:26:00.951Z,12.89
2023-04-26T06:28:29.209Z,12.93
2023-04-26T06:30:56.675Z,13.00
2023-04-26T06:33:25.013Z,13.05
2023-04-26T06:35:52.470Z,13.12
2023-04-26T06:38:20.349Z,13.29
2023-04-26T06:40:48.589Z,13.42
2023-04-26T06:43:16.405Z,13.47
2023-04-26T06:45:44.391Z,13.52
2023-04-26T06:48:12.201Z,13.62
2023-04-26T06:50:42.856Z,13.70
2023-04-26T06:53:10.286Z,13.71
2023-04-26T06:55:37.407Z,13.77
2023-04-26T06:58:05.325Z,13.92
2023-04-26T07:00:33.177Z,14.02
2023-04-26T07:03:01.570Z,14.17
2023-04-26T07:05:29.777Z,14.28
2023-04-26T07:07:57.400Z,14.35
2023-04-26T07:10:26.141Z,14.44
2023-04-26T07:12:53.975Z,14.54
2023-04-26T07:15:22.258Z,14.66
2023-04-26T07:17:50.064Z,14.73
2023-04-26T07:20:20.997Z,14.78
2023-04-26T07:22:48.980Z,14.86
2023-04-26T07:25:17.193Z,14.95
2023-04-26T07:27:44.675Z,15.06
2023-04-26T07:30:13.164Z,15.15
2023-04-26T07:32:40.836Z,15.18
2023-04-26T07:35:15.964Z,15.20
2023-04-26T07:37:44.550Z,15.27
2023-04-26T07:40:15.057Z,15.34
2023-04-26T07:42:43.121Z,15.42
2023-04-26T07:45:13.620Z,15.51
2023-04-26T07:47:41.181Z,15.57
2023-04-26T07:50:12.973Z,15.58
2023-04-26T07:52:40.807Z,15.68
2023-04-26T07:55:10.256Z,15.72
2023-04-26T07:57:37.888Z,15.78
2023-04-26T08:00:10.351Z,15.80
2023-04-26T08:05:11.639Z,15.91
2023-04-26T08:07:39.963Z,15.92
2023-04-26T08:10:08.260Z,16.06
2023-04-26T08:12:37.902Z,16.14
2023-04-26T08:15:06.710Z,16.27
2023-04-26T08:17:34.779Z,16.40
2023-04-26T08:20:02.653Z,16.49
2023-04-26T08:22:30.763Z,16.59
2023-04-26T08:24:58.254Z,16.72
2023-04-26T08:27:26.106Z,16.76
2023-04-26T08:29:53.632Z,16.80
2023-04-26T08:32:22.118Z,16.94
2023-04-26T08:34:49.829Z,17.08
2023-04-26T08:37:17.578Z,17.15
2023-04-26T08:39:45.475Z,17.22
2023-04-26T08:42:16.089Z,17.28
2023-04-26T08:44:45.110Z,17.33
2023-04-26T08:47:37.127Z,17.37
2023-04-26T08:50:04.797Z,17.44
2023-04-26T08:52:33.304Z,17.55
2023-04-26T08:55:01.580Z,17.53
2023-04-26T08:57:29.417Z,17.69
2023-04-26T08:59:57.817Z,17.76
2023-04-26T09:02:25.267Z,17.83
2023-04-26T09:04:53.273Z,17.93
2023-04-26T09:07:34.112Z,17.85
2023-04-26T09:10:01.806Z,17.91
2023-04-26T09:12:29.829Z,17.94
2023-04-26T09:14:57.806Z,18.08
2023-04-26T09:17:32.059Z,18.13
2023-04-26T09:20:07.219Z,18.23
2023-04-26T09:22:36.233Z,18.29
2023-04-26T09:25:06.005Z,18.34
2023-04-26T09:27:56.650Z,18.28
2023-04-26T09:30:25.764Z,18.38
2023-04-26T09:33:07.297Z,18.37
2023-04-26T09:35:36.657Z,18.39
2023-04-26T09:38:13.260Z,18.42
2023-04-26T09:41:04.948Z,18.47
2023-04-26T09:43:33.342Z,18.51
2023-04-26T09:46:02.276Z,18.47
2023-04-26T09:48:34.703Z,18.52
2023-04-26T09:51:04.678Z,18.57
2023-04-26T09:53:39.685Z,18.62
2023-04-26T09:56:10.670Z,18.71
2023-04-26T09:58:46.891Z,18.69
2023-04-26T10:01:20.528Z,18.69
2023-04-26T10:03:48.363Z,18.69
2023-04-26T10:06:16.936Z,18.78
2023-04-26T10:08:44.158Z,18.89
2023-04-26T10:11:13.121Z,18.96
2023-04-26T10:13:41.696Z,18.96
2023-04-26T10:16:10.083Z,18.97
2023-04-26T10:18:37.965Z,19.04
2023-04-26T10:21:13.426Z,19.02
2023-04-26T10:23:40.992Z,19.07
2023-04-26T10:26:08.527Z,19.05
2023-04-26T10:29:02.871Z,19.08
2023-04-26T10:32:16.667Z,19.12
2023-04-26T10:34:44.869Z,19.19
2023-04-26T10:37:37.754Z,19.17
2023-04-26T10:40:24.811Z,19.09
2023-04-26T10:42:54.324Z,19.14
2023-04-26T10:45:49.537Z,19.29
2023-04-26T10:48:27.022Z,19.41
2023-04-26T10:51:02.657Z,19.36
2023-04-26T10:53:53.911Z,19.26
2023-04-26T10:56:26.904Z,19.30
2023-04-26T11:01:52.286Z,19.39
2023-04-26T11:04:20.027Z,19.48
2023-04-26T11:06:53.266Z,19.50
2023-04-26T11:09:41.307Z,19.64
2023-04-26T11:12:15.468Z,19.62
2023-04-26T11:14:42.925Z,19.67
2023-04-26T11:17:10.076Z,19.78
2023-04-26T11:19:45.451Z,19.92
2023-04-26T11:22:12.862Z,19.69
2023-04-26T11:24:40.791Z,19.71
2023-04-26T11:27:11.831Z,19.63
2023-04-26T11:29:40.019Z,19.90
2023-04-26T11:32:08.858Z,20.01
2023-04-26T11:34:36.542Z,20.04
2023-04-26T11:37:05.111Z,20.12
2023-04-26T11:39:33.062Z,20.35
2023-04-26T11:42:29.920Z,20.68
2023-04-26T11:44:59.604Z,21.21
2023-04-26T11:47:30.901Z,21.49
2023-04-26T11:49:58.472Z,21.75
2023-04-26T11:52:26.475Z,22.17
2023-04-26T11:55:04.146Z,22.49
2023-04-26T11:57:32.418Z,22.73
2023-04-26T12:00:14.840Z,22.91
2023-04-26T12:02:48.824Z,23.19
2023-04-26T12:05:23.594Z,23.59
2023-04-26T12:07:56.733Z,24.12
2023-04-26T12:10:27.103Z,24.84
2023-04-26T12:12:56.864Z,25.26
2023-04-26T12:15:25.069Z,25.90
2023-04-26T12:17:56.674Z,26.13
2023-04-26T12:20:28.546Z,26.44
2023-04-26T12:23:06.354Z,26.85
2023-04-26T12:25:34.557Z,27.32
2023-04-26T12:28:12.561Z,27.78
2023-04-26T12:30:40.431Z,27.98
2023-04-26T12:33:16.487Z,27.62
2023-04-26T12:35:45.960Z,28.03
2023-04-26T12:38:33.679Z,28.14
2023-04-26T12:41:01.870Z,28.19
2023-04-26T12:43:29.542Z,28.11
2023-04-26T12:45:56.832Z,28.62
2023-04-26T12:48:24.332Z,28.84
2023-04-26T12:50:52.179Z,27.91
2023-04-26T12:53:19.796Z,27.45
2023-04-26T12:55:47.349Z,27.77
2023-04-26T12:58:15.071Z,27.98
2023-04-26T13:00:44.482Z,28.23
2023-04-26T13:03:14.895Z,28.64
2023-04-26T13:05:43.105Z,29.28
2023-04-26T13:08:11.194Z,29.88
2023-04-26T13:10:39.363Z,30.42
2023-04-26T13:13:07.329Z,30.86
2023-04-26T13:15:34.946Z,31.36
2023-04-26T13:18:02.691Z,31.64
2023-04-26T13:20:31.146Z,31.85
2023-04-26T13:22:59.031Z,31.94
2023-04-26T13:25:26.914Z,31.85
2023-04-26T13:27:55.923Z,31.82
2023-04-26T13:30:23.898Z,31.39
2023-04-26T13:32:51.542Z,31.28
2023-04-26T13:35:19.769Z,31.52
2023-04-26T13:37:47.996Z,31.76
2023-04-26T13:40:15.941Z,31.82
2023-04-26T13:42:43.695Z,31.84
2023-04-26T13:45:14.219Z,31.83
2023-04-26T13:47:42.151Z,32.23
2023-04-26T13:50:11.771Z,32.46
2023-04-26T13:52:39.308Z,32.40
2023-04-26T13:55:09.567Z,32.52
2023-04-26T13:57:37.171Z,33.27
2023-04-26T14:00:08.192Z,33.80
2023-04-26T14:02:35.965Z,33.73
2023-04-26T14:05:05.222Z,34.12
2023-04-26T14:07:33.343Z,34.22
2023-04-26T14:10:01.418Z,33.83
2023-04-26T14:12:30.232Z,33.66
2023-04-26T14:14:57.867Z,33.56
2023-04-26T14:17:25.837Z,33.24
2023-04-26T14:19:54.792Z,33.03
2023-04-26T14:22:22.872Z,32.75
2023-04-26T14:24:50.776Z,32.86
2023-04-26T14:27:19.309Z,33.32
2023-04-26T14:29:47.186Z,33.50
2023-04-26T14:32:15.321Z,33.63
2023-04-26T14:34:43.076Z,33.58
2023-04-26T14:37:10.836Z,33.76
2023-04-26T14:39:38.367Z,33.28
2023-04-26T14:42:06.847Z,33.26
2023-04-26T14:44:34.751Z,33.39
2023-04-26T14:47:02.701Z,33.73
2023-04-26T14:49:30.267Z,33.94
2023-04-26T14:51:58.217Z,34.34
2023-04-26T14:54:25.814Z,34.13
2023-04-26T14:56:54.042Z,34.54
2023-04-26T14:59:21.554Z,34.97
2023-04-26T15:01:49.624Z,35.32
2023-04-26T15:04:17.268Z,35.36
2023-04-26T15:06:45.155Z,35.21
2023-04-26T15:09:13.283Z,35.26
2023-04-26T15:11:40.907Z,35.28
2023-04-26T15:14:08.903Z,35.12
2023-04-26T15:16:36.970Z,34.76
2023-04-26T15:19:05.999Z,34.42
2023-04-26T15:21:35.736Z,34.23
2023-04-26T15:24:04.162Z,33.78
2023-04-26T15:26:33.327Z,33.53
2023-04-26T15:29:00.993Z,33.02
2023-04-26T15:31:28.956Z,32.11
2023-04-26T15:33:57.262Z,31.10
2023-04-26T15:36:25.099Z,30.15
2023-04-26T15:38:52.856Z,29.18
2023-04-26T15:41:20.445Z,28.10
2023-04-26T15:43:48.399Z,27.46
2023-04-26T15:46:16.804Z,27.07
2023-04-26T15:48:45.147Z,26.51
2023-04-26T15:51:13.169Z,26.30
2023-04-26T15:53:45.134Z,26.11
2023-04-26T15:56:18.224Z,25.92
2023-04-26T15:58:46.122Z,25.90
2023-04-26T16:01:14.869Z,25.82
2023-04-26T16:03:46.506Z,25.91
2023-04-26T16:06:15.405Z,25.95
2023-04-26T16:08:43.642Z,26.07
2023-04-26T16:11:11.839Z,26.59
2023-04-26T16:13:39.779Z,27.24
2023-04-26T16:16:09.231Z,27.96
2023-04-26T16:18:40.175Z,28.82
2023-04-26T16:21:09.888Z,29.25
2023-04-26T16:23:38.003Z,29.29
2023-04-26T16:26:04.757Z,29.39
2023-04-26T16:28:33.074Z,29.23
2023-04-26T16:31:01.137Z,28.72
2023-04-26T16:33:29.019Z,27.96
2023-04-26T16:35:56.978Z,27.15
2023-04-26T16:38:25.034Z,26.39
2023-04-26T16:40:58.724Z,25.90
2023-04-26T16:43:29.751Z,25.52
2023-04-26T16:46:01.736Z,25.19
2023-04-26T16:48:30.707Z,24.93
2023-04-26T16:50:58.620Z,24.64
2023-04-26T16:53:26.527Z,24.39
2023-04-26T16:55:54.072Z,24.22
2023-04-26T16:58:22.024Z,24.11
2023-04-26T17:00:49.486Z,24.10
2023-04-26T17:03:17.462Z,23.99
2023-04-26T17:05:48.835Z,23.86
2023-04-26T17:08:16.736Z,23.76
2023-04-26T17:10:44.792Z,23.69
2023-04-26T17:13:16.524Z,23.52
2023-04-26T17:15:44.988Z,23.23
2023-04-26T17:18:12.883Z,23.11
2023-04-26T17:20:41.194Z,22.97
2023-04-26T17:23:09.077Z,22.89
2023-04-26T17:25:36.917Z,22.87
2023-04-26T17:28:05.374Z,22.90
2023-04-26T17:30:33.243Z,22.90
2023-04-26T17:33:00.916Z,22.91
2023-04-26T17:35:36.503Z,22.86
2023-04-26T17:38:03.505Z,22.72
2023-04-26T17:40:31.075Z,22.55
2023-04-26T17:42:58.661Z,22.46
2023-04-26T17:45:27.416Z,22.50
2023-04-26T17:47:55.308Z,22.53
2023-04-26T17:50:23.940Z,22.44
2023-04-26T17:52:51.339Z,22.30
2023-04-26T17:55:18.928Z,22.25
2023-04-26T17:57:46.777Z,22.24
2023-04-26T18:00:16.543Z,22.24
2023-04-26T18:02:44.817Z,21.99
2023-04-26T18:05:13.806Z,21.80
2023-04-26T18:07:41.310Z,21.64
2023-04-26T18:10:10.225Z,21.61
2023-04-26T18:12:38.306Z,21.55
2023-04-26T18:15:07.033Z,21.39
2023-04-26T18:17:35.101Z,21.23
2023-04-26T18:20:02.836Z,21.02
2023-04-26T18:22:30.908Z,20.84
2023-04-26T18:24:58.819Z,20.66
2023-04-26T18:27:26.756Z,20.52
2023-04-26T18:29:54.935Z,20.33
2023-04-26T18:32:22.441Z,20.16
2023-04-26T18:34:49.971Z,19.99
2023-04-26T18:37:17.603Z,19.89
2023-04-26T18:39:48.781Z,19.82
2023-04-26T18:42:16.604Z,19.73
2023-04-26T18:44:44.625Z,19.64
2023-04-26T18:47:12.432Z,19.57
2023-04-26T18:49:40.492Z,19.47
2023-04-26T18:52:08.898Z,19.36
2023-04-26T18:54:38.992Z,19.24
2023-04-26T18:57:06.853Z,19.13
2023-04-26T18:59:34.490Z,19.04
2023-04-26T19:02:02.458Z,18.94
2023-04-26T19:04:30.827Z,18.82
2023-04-26T19:07:01.420Z,18.75
2023-04-26T19:09:31.988Z,18.75
2023-04-26T19:12:06.036Z,18.55
2023-04-26T19:14:36.128Z,18.53
2023-04-26T19:17:04.158Z,18.51
2023-04-26T19:19:31.973Z,18.41
2023-04-26T19:21:59.897Z,18.38
2023-04-26T19:24:27.827Z,18.32
2023-04-26T19:26:55.665Z,18.30
2023-04-26T19:29:23.178Z,18.23
2023-04-26T19:31:51.182Z,18.12
2023-04-26T19:34:18.861Z,18.04
2023-04-26T19:36:47.183Z,17.90
2023-04-26T19:39:16.613Z,17.81
2023-04-26T19:41:45.239Z,17.72
2023-04-26T19:44:12.957Z,17.67
2023-04-26T19:46:40.956Z,17.64
2023-04-26T19:49:08.863Z,17.58
2023-04-26T19:51:40.652Z,17.47
2023-04-26T19:54:08.603Z,17.43
2023-04-26T19:56:36.504Z,17.32
2023-04-26T19:59:04.600Z,17.27
2023-04-26T20:01:32.386Z,17.21
2023-04-26T20:04:00.175Z,17.19
2023-04-26T20:06:27.708Z,17.15
2023-04-26T20:08:58.568Z,17.13
2023-04-26T20:11:26.446Z,17.08
2023-04-26T20:13:54.301Z,17.02
2023-04-26T20:16:22.251Z,16.98
2023-04-26T20:18:50.287Z,16.87
2023-04-26T20:21:18.664Z,16.76
2023-04-26T20:23:46.391Z,16.67
2023-04-26T20:26:13.456Z,16.59
2023-04-26T20:28:41.104Z,16.54
2023-04-26T20:31:08.753Z,16.47
2023-04-26T20:33:36.740Z,16.41
2023-04-26T20:36:04.847Z,16.41
2023-04-26T20:38:32.986Z,16.44
2023-04-26T20:41:03.234Z,16.43
2023-04-26T20:43:30.807Z,16.40
2023-04-26T20:45:58.852Z,16.34
2023-04-26T20:48:26.173Z,16.23
2023-04-26T20:50:58.738Z,16.15
2023-04-26T20:53:27.040Z,16.09
2023-04-26T20:55:54.629Z,16.03
2023-04-26T20:58:22.081Z,15.92
2023-04-26T21:00:54.149Z,15.85
2023-04-26T21:03:41.217Z,15.80
2023-04-26T21:06:08.385Z,15.74
2023-04-26T21:08:37.001Z,15.68
2023-04-26T21:11:05.424Z,15.67
2023-04-26T21:13:33.002Z,15.67
2023-04-26T21:16:00.482Z,15.72
2023-04-26T21:18:28.537Z,15.72
2023-04-26T21:20:56.791Z,15.62
2023-04-26T21:23:24.516Z,15.54
2023-04-26T21:25:51.956Z,15.48
2023-04-26T21:28:20.065Z,15.44
2023-04-26T21:30:47.560Z,15.44
2023-04-26T21:33:16.121Z,15.35
2023-04-26T21:35:44.204Z,15.35
2023-04-26T21:38:13.070Z,15.34
2023-04-26T21:40:40.664Z,15.29
2023-04-26T21:43:08.626Z,15.28
2023-04-26T21:45:36.244Z,15.26
2023-04-26T21:48:04.589Z,15.25
2023-04-26T21:50:32.441Z,15.24
2023-04-26T21:53:00.107Z,15.25
2023-04-26T21:55:27.995Z,15.22
2023-04-26T21:57:55.769Z,15.18
2023-04-26T22:00:23.988Z,15.14
2023-04-26T22:02:52.467Z,15.13
2023-04-26T22:05:26.216Z,15.13
2023-04-26T22:07:57.289Z,15.12
2023-04-26T22:10:25.323Z,15.09
2023-04-26T22:12:53.025Z,15.07
2023-04-26T22:15:21.080Z,15.04
2023-04-26T22:17:48.685Z,14.96
2023-04-26T22:20:16.507Z,14.94
2023-04-26T22:22:45.032Z,14.91
2023-04-26T22:25:12.911Z,14.79
2023-04-26T22:27:40.589Z,14.70
2023-04-26T22:30:23.883Z,14.63
2023-04-26T22:32:54.767Z,14.58
2023-04-26T22:35:21.989Z,14.53
2023-04-26T22:37:49.637Z,14.48
2023-04-26T22:40:18.089Z,14.41
2023-04-26T22:42:45.937Z,14.35
2023-04-26T22:45:13.650Z,14.32
2023-04-26T22:47:41.968Z,14.33
2023-04-26T22:50:11.377Z,14.28
2023-04-26T22:52:38.491Z,14.18
2023-04-26T22:55:08.967Z,14.13
2023-04-26T22:57:36.726Z,14.07
2023-04-26T23:00:10.240Z,13.99
2023-04-26T23:02:37.938Z,13.93
2023-04-26T23:05:10.226Z,13.89
2023-04-26T23:07:38.623Z,13.83
2023-04-26T23:10:07.180Z,13.78
2023-04-26T23:12:35.983Z,13.78
2023-04-26T23:15:05.295Z,13.75
2023-04-26T23:17:34.196Z,13.70
2023-04-26T23:20:02.323Z,13.63
2023-04-26T23:22:29.304Z,13.57
2023-04-26T23:24:57.190Z,13.54
2023-04-26T23:27:24.941Z,13.62
2023-04-26T23:29:52.925Z,13.60
2023-04-26T23:32:28.108Z,13.62
2023-04-26T23:34:56.146Z,13.60
2023-04-26T23:37:24.020Z,13.55
2023-04-26T23:39:51.823Z,13.54
2023-04-26T23:42:19.285Z,13.54
2023-04-26T23:44:46.850Z,13.50
2023-04-26T23:47:13.992Z,13.51
2023-04-26T23:49:41.914Z,13.52
2023-04-26T23:52:09.810Z,13.50
2023-04-26T23:54:37.686Z,13.52
2023-04-26T23:57:05.614Z,13.54
2023-04-26T23:59:34.025Z,13.53
